12:45
Airports
Links
Donate
Help keep this website running!
PayPal
Bitcoin
METAR
PHOG 181154Z AUTO 00000KT 10SM FEW037 BKN070 18/17 A2992 RMK AO2 SLP137 T01780172 10211 20178 57002 TSNO $
Current Weather Conditions at PHOG
VFR 11:54:00 18-12-17
Automated station, no observer
Altimeter:29.92 hg
Temp:17.8°c 63°f
Dew point:17.2°c 63°f
Wind:0 knots, 0 mph, 0 m/s,
Variable direction
Visibility:10.0 statute miles
7000(BKN) Broken
3700(FEW) A few
Past METAR reports
VFR 10:54:00 18-12-17
Automated station, no observer
Altimeter:29.92 hg
Temp:18.3°c 64°f
Dew point:17.2°c 63°f
Wind:4 knots, 4.6 mph, 2 m/s, from 130°
Visibility:10.0 statute miles
5000(FEW) A few
3600(FEW) A few
PHOG 181054Z AUTO 13004KT 10SM FEW036 FEW050 18/17 A2992 RMK AO2 SLP137 T01830172 TSNO $
VFR 09:54:00 18-12-17
Automated station
Altimeter:29.92 hg
Temp:18.3°c 64°f
Dew point:17.2°c 63°f
Wind:5 knots, 5.8 mph, 3 m/s, from 130°
Visibility:10.0 statute miles
4000(FEW) A few
PHOG 180954Z 13005KT 10SM FEW040 18/17 A2992 RMK AO2 SLP138 T01830172 402670150 $
VFR 08:54:00 18-12-17
Automated station
Altimeter:29.93 hg
Temp:18.3°c 64°f
Dew point:17.2°c 63°f
Wind:6 knots, 6.9 mph, 3 m/s, from 140°
Visibility:10.0 statute miles
4000(FEW) A few
PHOG 180854Z 14006KT 10SM FEW040 18/17 A2993 RMK AO2 SLP139 T01830172 50006 $
VFR 07:54:00 18-12-17
Automated station
Altimeter:29.93 hg
Temp:19.4°c 66°f
Dew point:17.8°c 63°f
Wind:0 knots, 0 mph, 0 m/s,
Variable direction
Visibility:10.0 statute miles
4500(FEW) A few
PHOG 180754Z 00000KT 10SM FEW045 19/18 A2993 RMK AO2 SLP139 T01940178 $
VFR 06:54:00 18-12-17
Automated station
Altimeter:29.92 hg
Temp:20.0°c 68°f
Dew point:18.3°c 64°f
Wind:0 knots, 0 mph, 0 m/s,
Variable direction
Visibility:10.0 statute miles
7500(SCT) Scattered
4500(SCT) Scattered
PHOG 180654Z COR 00000KT 10SM SCT045 SCT075 19/18 A2992 RMK AO2 SLP135 T02000183 $
TAF
PHOG 181130Z 1812/1912 VRB04KT P6SM FEW030 SCT060 FM182100 01009KT P6SM VCSH SCT025 BKN040 FM190300 36005KT 5SM -SHRA BKN025 OVC040 AMD LTD TO VIS AND WIND TIL 181600
Forecast at PHOG
12:00 18-12-17 to 21:00 18-12-17
Wind:4 Knots from 360°
Visibility:6.21 statute miles
3000FEW A few
6000SCT Scattered
FM 21:00 18-12-17 to 03:00 19-12-17
VCSH
Wind:9 Knots from 10°
Visibility:6.21 statute miles
2500SCT Scattered
4000BKN Broken
FM 03:00 19-12-17 to 12:00 19-12-17
-SHRA
Wind:5 Knots from 360°
Visibility:5.0 statute miles
2500BKN Broken
4000OVC Overcast